createdAt,value
2016-12-01T00:02:03.522Z,99.39
2016-12-01T00:06:59.860Z,99.29
2016-12-01T00:11:57.196Z,99.29
2016-12-01T00:16:54.208Z,99.29
2016-12-01T00:21:50.927Z,99.29
2016-12-01T00:26:47.535Z,99.29
2016-12-01T00:31:44.955Z,99.39
2016-12-01T00:36:41.279Z,98.44
2016-12-01T00:41:37.707Z,99.15
2016-12-01T00:46:34.088Z,99.29
2016-12-01T00:51:32.421Z,99.01
2016-12-01T00:56:29.766Z,99.44
2016-12-01T01:01:26.158Z,99.39
2016-12-01T01:06:22.917Z,99.44
2016-12-01T01:11:19.429Z,99.86
2016-12-01T01:16:16.001Z,99.63
2016-12-01T01:21:12.740Z,99.58
2016-12-01T01:26:09.522Z,98.63
2016-12-01T01:31:06.197Z,99.72
2016-12-01T01:36:03.219Z,99.99
2016-12-01T01:41:00.302Z,99.99
2016-12-01T01:45:56.597Z,98.87
2016-12-01T01:50:53.330Z,99.86
2016-12-01T01:55:49.881Z,99.58
2016-12-01T02:00:47.663Z,99.99
2016-12-01T02:05:44.047Z,99.44
2016-12-01T02:10:41.341Z,99.99
2016-12-01T02:15:38.064Z,99.99
2016-12-01T02:20:38.161Z,99.99
2016-12-01T02:25:33.795Z,99.72
2016-12-01T02:30:30.682Z,99.99
2016-12-01T02:35:28.765Z,99.99
2016-12-01T02:40:24.960Z,99.99
2016-12-01T02:45:21.424Z,99.53
2016-12-01T02:50:19.205Z,99.99
2016-12-01T02:55:16.375Z,99.99
2016-12-01T03:00:12.928Z,99.99
2016-12-01T03:05:11.076Z,99.99
2016-12-01T03:10:08.083Z,99.99
2016-12-01T03:15:04.730Z,99.99
2016-12-01T03:20:01.672Z,99.99
2016-12-01T03:24:58.165Z,99.99
2016-12-01T03:29:54.708Z,99.99
2016-12-01T03:34:52.286Z,99.99
2016-12-01T03:39:49.688Z,99.99
2016-12-01T03:44:46.147Z,99.99
2016-12-01T03:49:43.120Z,99.99
2016-12-01T03:54:39.460Z,99.99
2016-12-01T03:59:37.159Z,99.99
2016-12-01T04:04:33.484Z,99.99
2016-12-01T04:09:30.256Z,99.99
2016-12-01T04:14:27.831Z,99.99
2016-12-01T04:19:24.997Z,99.99
2016-12-01T04:24:21.441Z,99.99
2016-12-01T04:29:18.872Z,99.99
2016-12-01T04:34:16.142Z,99.99
2016-12-01T04:39:14.016Z,99.99
2016-12-01T04:44:10.499Z,99.99
2016-12-01T04:49:07.235Z,99.99
2016-12-01T04:54:03.888Z,99.99
2016-12-01T04:59:00.308Z,99.99
2016-12-01T05:03:57.186Z,99.99
2016-12-01T05:08:53.548Z,99.99
2016-12-01T05:13:49.973Z,99.99
2016-12-01T05:18:47.036Z,99.99
2016-12-01T05:23:43.526Z,99.99
2016-12-01T05:28:40.727Z,99.99
2016-12-01T05:33:37.257Z,99.99
2016-12-01T05:38:34.034Z,99.99
2016-12-01T05:43:31.008Z,99.99
2016-12-01T05:48:27.680Z,99.99
2016-12-01T05:53:24.266Z,99.99
2016-12-01T05:58:21.034Z,99.99
2016-12-01T06:03:17.712Z,99.99
2016-12-01T06:08:13.823Z,99.99
2016-12-01T06:13:10.402Z,99.99
2016-12-01T06:18:07.653Z,99.99
2016-12-01T06:23:04.333Z,99.99
2016-12-01T06:28:00.447Z,99.99
2016-12-01T06:32:57.112Z,99.99
2016-12-01T06:37:53.633Z,99.99
2016-12-01T06:42:50.135Z,99.99
2016-12-01T06:47:46.862Z,99.99
2016-12-01T06:52:43.502Z,99.99
2016-12-01T06:57:40.270Z,99.99
2016-12-01T07:02:36.321Z,99.99
2016-12-01T07:07:32.900Z,99.99
2016-12-01T07:12:29.341Z,99.99
2016-12-01T07:17:25.748Z,99.99
2016-12-01T07:22:22.268Z,99.99
2016-12-01T07:27:18.365Z,99.99
2016-12-01T07:32:14.974Z,99.99
2016-12-01T07:37:11.798Z,99.99
2016-12-01T07:42:08.266Z,99.99
2016-12-01T07:47:04.722Z,99.99
2016-12-01T07:52:01.413Z,99.99
2016-12-01T07:56:57.904Z,99.99
2016-12-01T08:01:55.939Z,99.99
2016-12-01T08:06:52.021Z,99.99
2016-12-01T08:11:48.673Z,99.99
2016-12-01T08:16:45.809Z,99.99
2016-12-01T08:21:42.189Z,99.99
2016-12-01T08:26:38.643Z,99.99
2016-12-01T08:31:35.222Z,99.99
2016-12-01T08:36:31.950Z,99.99
2016-12-01T08:41:28.332Z,99.99
2016-12-01T08:46:25.936Z,99.99
2016-12-01T08:51:22.372Z,99.99
2016-12-01T08:56:19.086Z,99.99
2016-12-01T09:01:15.777Z,99.99
2016-12-01T09:06:12.184Z,99.99
2016-12-01T09:11:08.417Z,99.99
2016-12-01T09:16:04.931Z,99.99
2016-12-01T09:21:01.246Z,99.99
2016-12-01T09:25:57.732Z,99.99
2016-12-01T09:30:54.005Z,99.99
2016-12-01T09:35:50.454Z,99.99
2016-12-01T09:40:47.199Z,99.99
2016-12-01T09:45:43.762Z,99.99
2016-12-01T09:50:40.122Z,99.99
2016-12-01T09:55:37.531Z,99.99
2016-12-01T10:00:34.119Z,99.99
2016-12-01T10:05:30.763Z,99.99
2016-12-01T10:10:29.843Z,99.99
2016-12-01T10:15:25.709Z,99.99
2016-12-01T10:20:22.645Z,99.99
2016-12-01T10:25:19.190Z,99.99
2016-12-01T10:30:15.590Z,99.99
2016-12-01T10:35:12.570Z,99.99
2016-12-01T10:40:09.182Z,99.99
2016-12-01T10:45:05.756Z,99.99
2016-12-01T10:50:02.208Z,99.99
2016-12-01T10:54:58.944Z,99.99
2016-12-01T10:59:55.406Z,99.99
2016-12-01T11:04:51.845Z,99.99
2016-12-01T11:09:48.615Z,99.99
2016-12-01T11:14:45.214Z,99.99
2016-12-01T11:19:41.730Z,99.99
2016-12-01T11:24:38.286Z,99.99
2016-12-01T11:29:34.481Z,99.99
2016-12-01T11:34:31.315Z,99.99
2016-12-01T11:39:27.673Z,99.99
2016-12-01T11:44:24.520Z,99.99
2016-12-01T11:49:20.793Z,99.99
2016-12-01T11:54:17.160Z,99.99
2016-12-01T11:59:13.555Z,99.99
2016-12-01T12:04:09.942Z,99.99
2016-12-01T12:09:06.433Z,99.99
2016-12-01T12:14:03.615Z,99.99
2016-12-01T12:19:00.841Z,99.99
2016-12-01T12:23:57.188Z,99.99
2016-12-01T12:28:54.239Z,99.99
2016-12-01T12:33:50.720Z,99.99
2016-12-01T12:38:47.039Z,99.99
2016-12-01T12:43:43.576Z,99.99
2016-12-01T12:48:40.295Z,99.99
2016-12-01T12:53:36.767Z,99.99
2016-12-01T12:58:33.351Z,99.99
2016-12-01T13:03:29.998Z,99.99
2016-12-01T13:08:26.484Z,99.99
2016-12-01T13:13:23.216Z,99.99
2016-12-01T13:18:20.235Z,99.99
2016-12-01T13:23:16.722Z,99.99
2016-12-01T13:28:13.375Z,99.99
2016-12-01T13:33:10.138Z,99.99
2016-12-01T13:38:07.524Z,99.99
2016-12-01T13:43:03.919Z,99.99
2016-12-01T13:48:00.622Z,99.99
2016-12-01T13:52:58.558Z,99.99
2016-12-01T13:57:54.828Z,99.99
2016-12-01T14:02:50.946Z,99.99
2016-12-01T14:07:47.873Z,99.99
2016-12-01T14:12:44.374Z,99.99
2016-12-01T14:22:44.511Z,99.99
2016-12-01T14:27:40.918Z,99.99
2016-12-01T14:32:37.456Z,99.99
2016-12-01T14:37:33.800Z,99.99
2016-12-01T14:42:30.518Z,99.99
2016-12-01T14:47:29.028Z,99.99
2016-12-01T14:52:25.484Z,99.99
2016-12-01T14:57:21.640Z,99.99
2016-12-01T15:02:18.578Z,99.99
2016-12-01T15:07:14.989Z,99.99
2016-12-01T15:12:11.558Z,99.99
2016-12-01T15:17:08.146Z,99.99
2016-12-01T15:22:04.858Z,99.99
2016-12-01T15:27:01.308Z,99.99
2016-12-01T15:31:59.574Z,99.99
2016-12-01T15:36:58.578Z,99.99
2016-12-01T15:41:54.898Z,99.99
2016-12-01T15:46:52.046Z,99.99
2016-12-01T15:51:48.641Z,99.99
2016-12-01T15:56:46.603Z,99.99
2016-12-01T16:01:43.208Z,99.99
2016-12-01T16:06:39.737Z,99.99
2016-12-01T16:11:44.182Z,99.99
2016-12-01T16:16:40.328Z,99.99
2016-12-01T16:21:37.801Z,99.99
2016-12-01T16:26:33.948Z,99.99
2016-12-01T16:31:30.519Z,99.99
2016-12-01T16:36:27.552Z,99.99
2016-12-01T16:41:23.699Z,99.99
2016-12-01T16:46:20.065Z,99.99
2016-12-01T16:51:18.450Z,99.99
2016-12-01T16:56:14.907Z,99.99
2016-12-01T17:01:11.184Z,99.99
2016-12-01T17:06:07.834Z,99.99
2016-12-01T17:11:06.783Z,99.99
2016-12-01T17:16:02.636Z,99.99
2016-12-01T17:20:58.933Z,99.99
2016-12-01T17:25:55.547Z,99.99
2016-12-01T17:30:52.197Z,99.99
2016-12-01T17:35:48.698Z,99.99
2016-12-01T17:40:45.318Z,99.99
2016-12-01T17:45:41.761Z,99.99
2016-12-01T17:50:38.314Z,99.99
2016-12-01T17:55:34.995Z,99.99
2016-12-01T18:00:33.812Z,99.99
2016-12-01T18:05:31.109Z,99.99
2016-12-01T18:10:27.013Z,99.99
2016-12-01T18:15:23.576Z,99.99
2016-12-01T18:20:20.314Z,99.99
2016-12-01T18:25:17.434Z,99.99
2016-12-01T18:30:13.895Z,99.99
2016-12-01T18:35:10.606Z,99.99
2016-12-01T18:40:06.706Z,99.99
2016-12-01T18:45:03.863Z,99.99
2016-12-01T18:50:00.283Z,99.99
2016-12-01T18:54:56.845Z,99.99
2016-12-01T18:59:53.759Z,99.99
2016-12-01T19:04:50.105Z,99.99
2016-12-01T19:09:46.624Z,99.99
2016-12-01T19:14:42.854Z,99.99
2016-12-01T19:19:39.221Z,99.99
2016-12-01T19:24:35.343Z,99.99
2016-12-01T19:29:31.793Z,99.99
2016-12-01T19:34:28.779Z,99.99
2016-12-01T19:39:26.153Z,99.99
2016-12-01T19:44:22.492Z,99.99
2016-12-01T19:49:20.564Z,99.99
2016-12-01T19:54:17.080Z,99.99
2016-12-01T19:59:13.214Z,99.99
2016-12-01T20:04:09.763Z,99.99
2016-12-01T20:09:09.312Z,99.99
2016-12-01T20:14:05.406Z,99.99
2016-12-01T20:19:04.413Z,99.99
2016-12-01T20:24:00.355Z,99.99
2016-12-01T20:28:57.027Z,99.99
2016-12-01T20:33:53.366Z,99.99
2016-12-01T20:38:49.950Z,99.99
2016-12-01T20:43:46.816Z,99.99
2016-12-01T20:48:43.382Z,99.99
2016-12-01T20:53:40.131Z,99.99
2016-12-01T20:58:36.688Z,99.99
2016-12-01T21:03:34.787Z,99.99
2016-12-01T21:08:30.931Z,99.99
2016-12-01T21:13:27.256Z,99.99
2016-12-01T21:18:24.053Z,99.99
2016-12-01T21:23:20.493Z,99.99
2016-12-01T21:28:18.718Z,99.99
2016-12-01T21:33:14.554Z,99.99
2016-12-01T21:38:11.148Z,99.99
2016-12-01T21:43:08.262Z,99.99
2016-12-01T21:48:05.279Z,99.99
2016-12-01T21:53:01.554Z,99.99
2016-12-01T21:58:00.804Z,99.99
2016-12-01T22:02:56.846Z,99.99
2016-12-01T22:07:53.105Z,99.99
2016-12-01T22:12:49.800Z,99.99
2016-12-01T22:17:46.375Z,99.99
2016-12-01T22:22:42.997Z,99.99
2016-12-01T22:27:39.409Z,99.99
2016-12-01T22:32:36.663Z,99.99
2016-12-01T22:37:32.948Z,99.99
2016-12-01T22:42:30.163Z,99.99
2016-12-01T22:47:26.536Z,99.99
2016-12-01T22:52:23.120Z,99.99
2016-12-01T22:57:19.594Z,99.99
2016-12-01T23:02:16.139Z,99.99
2016-12-01T23:07:12.607Z,99.99
2016-12-01T23:12:09.331Z,99.99
2016-12-01T23:17:05.942Z,99.99
2016-12-01T23:22:05.103Z,99.99
2016-12-01T23:27:01.144Z,99.99
2016-12-01T23:31:59.060Z,99.99
2016-12-01T23:36:55.788Z,99.99
2016-12-01T23:41:52.645Z,99.99
2016-12-01T23:46:48.986Z,99.99
2016-12-01T23:51:45.547Z,99.99
2016-12-01T23:56:42.489Z,99.99
